Aérodrome :
LOGIN :

S'inscrire | Disclaimer

   EN    FR    IT 

 










Légende :    VFR   VFR Marginal   IFR   IFR Intensif   IFR Très Intensif
Visi : 
Plafond : 
>= 8 km
>= 3000ft
5 à 8 km
1000 à 3000 ft
1500m à 5 km
500 à 1000 ft
800 à 1500m
200 à 500 ft
< 800m
< 200 ft
Symboles :   Orages  Brouillard  Fortes neiges  Fortes précipitations  Vent > 20 kt
SIGMETs :   Divers  Orages  Givrage  Turbulence  Onde Orograph.  Cendres Volcan.






- Altitude de l'aérodrome : 100 ft


EBDT - Schaffen

DERNIER METAR :
  • 270855Z AUTO VRB02KT 4600 BR BKN004/// OVC100/// 03/02 Q1041 YLO

METARs EXPIRÉS :
  • 270825Z AUTO 09003KT 4600 BR FEW002/// OVC004/// 03/03 Q1041 YLO
  • 270822Z AUTO 07003KT 4700 BR SCT002/// BKN004/// 02/02 Q1041 AMB
  • 270755Z AUTO VRB02KT 2100 BR SCT001/// BKN003/// OVC018/// 02/02 Q1040 RED
  • 270725Z AUTO VRB01KT 1700 BR BKN001/// BKN036/// 02/02 Q1040 RED
  • 270655Z AUTO VRB01KT 0450 FG BKN001/// BKN037/// 02/02 Q1040 RED
  • 270625Z AUTO VRB01KT 0700 FG BKN001/// BKN003/// OVC037/// 01/01 Q1040 RED

Prévision TAF périmée.



MET'MAP, la Météo Aéronautique d'un coup d'oeil ! - Copyright ORBIFLY Décembre 2007 - Disclaimer

ORBIFLY MET'MAP TEAM :

Programmation & Développement : Alexandra Zaïnal
Sur une idée originale de : Baudouin d'Aumeries
Assistance à la programmation : Marc-Olivier Méhu
Soutien technique & logistique : Manuel Goepfert

Contact : metmap@orbifly.com




SOURCES & CREDITS :

   NOAA